Appleton, Maine
Current Conditions -  °F | °C
As of 5:15 PM on Wednesday 28 Jan 2015 (Local Time) from KRKD Reporting Station
Clear Clear  
Wind Chill: 13°   Ceiling: Unl
Heat Index: 21°   Visibility: 10mi
Dew Point:   Wind: 7mph
Humidity: 58%   Direction: 320°NW
Pressure: 30"   Gusts: NA
Location:  44.2596°N, 69.2573°W
Report Text: KRKD 282215Z AUTO 32006KT 10SM CLR M06/M13 A3000 RMK AO1
Loading
Personal Weather Stations






























Interactive Weather Map New forecast layout! Learn more

10-Day Weather Forecast

Advertisements
Track Severe Weather on mobile